createdAt,value
2016-03-29T00:00:42.317Z,80.64
2016-03-29T00:01:43.367Z,80.45
2016-03-29T00:02:42.870Z,80.26
2016-03-29T00:03:42.451Z,80.16
2016-03-29T00:05:43.426Z,80.55
2016-03-29T00:06:42.741Z,80.55
2016-03-29T00:07:42.790Z,80.26
2016-03-29T00:08:42.449Z,80.35
2016-03-29T00:09:42.280Z,80.93
2016-03-29T00:10:42.547Z,80.45
2016-03-29T00:11:42.755Z,80.93
2016-03-29T00:12:56.428Z,80.26
2016-03-29T00:13:42.244Z,80.83
2016-03-29T00:14:42.231Z,80.83
2016-03-29T00:15:42.233Z,80.64
2016-03-29T00:16:42.220Z,80.74
2016-03-29T00:17:43.832Z,80.93
2016-03-29T00:18:42.226Z,80.35
2016-03-29T00:19:42.197Z,80.83
2016-03-29T00:20:42.199Z,80.74
2016-03-29T00:21:42.202Z,80.55
2016-03-29T00:22:42.190Z,80.83
2016-03-29T00:23:42.192Z,80.83
2016-03-29T00:24:42.180Z,81.12
2016-03-29T00:25:42.167Z,81.12
2016-03-29T00:26:42.154Z,81.12
2016-03-29T00:27:42.156Z,80.83
2016-03-29T00:28:42.143Z,80.74
2016-03-29T00:29:42.146Z,80.64
2016-03-29T00:30:42.133Z,81.3
2016-03-29T00:31:42.120Z,81.21
2016-03-29T00:32:42.138Z,81.49
2016-03-29T00:33:42.126Z,81.59
2016-03-29T00:34:42.112Z,81.49
2016-03-29T00:35:42.100Z,81.59
2016-03-29T00:36:42.103Z,81.65
2016-03-29T00:37:42.089Z,81.17
2016-03-29T00:38:42.092Z,81.4
2016-03-29T00:39:42.079Z,81.21
2016-03-29T00:40:42.114Z,81.4
2016-03-29T00:41:42.085Z,81.45
2016-03-29T00:42:42.072Z,81.49
2016-03-29T00:43:42.058Z,81.74
2016-03-29T00:44:42.046Z,81.55
2016-03-29T00:45:42.049Z,82.03
2016-03-29T00:46:42.051Z,81.93
2016-03-29T00:47:42.023Z,81.84
2016-03-29T00:48:42.041Z,82.12
2016-03-29T00:49:42.013Z,82.31
2016-03-29T00:50:42.015Z,82.21
2016-03-29T00:51:42.002Z,82.21
2016-03-29T00:52:42.005Z,82.21
2016-03-29T00:53:41.992Z,82.21
2016-03-29T00:54:41.995Z,82.21
2016-03-29T00:55:41.998Z,82.59
2016-03-29T00:56:41.969Z,82.31
2016-03-29T00:57:41.971Z,82.69
2016-03-29T00:58:41.959Z,82.5
2016-03-29T00:59:41.962Z,82.5
2016-03-29T01:00:41.932Z,82.12
2016-03-29T01:01:41.934Z,82.4
2016-03-29T01:02:41.923Z,82.4
2016-03-29T01:03:41.940Z,82.5
2016-03-29T01:04:41.912Z,82.97
2016-03-29T01:05:41.914Z,83.26
2016-03-29T01:06:41.902Z,83.16
2016-03-29T01:07:41.956Z,83.16
2016-03-29T01:08:41.897Z,82.88
2016-03-29T01:09:41.883Z,83.16
2016-03-29T01:10:41.902Z,83.16
2016-03-29T01:11:41.874Z,82.97
2016-03-29T01:12:41.860Z,83.45
2016-03-29T01:13:41.863Z,83.26
2016-03-29T01:14:41.850Z,83.22
2016-03-29T01:15:41.853Z,83.36
2016-03-29T01:16:41.824Z,83.54
2016-03-29T01:17:41.827Z,83.36
2016-03-29T01:18:41.814Z,83.64
2016-03-29T01:19:41.832Z,83.73
2016-03-29T01:20:55.991Z,83.59
2016-03-29T01:21:41.821Z,83.92
2016-03-29T01:23:42.827Z,83.64
2016-03-29T01:24:42.549Z,83.59
2016-03-29T01:26:42.023Z,83.88
2016-03-29T01:27:42.354Z,83.69
2016-03-29T01:28:41.762Z,84.17
2016-03-29T01:29:41.750Z,84.07
2016-03-29T01:30:42.940Z,83.88
2016-03-29T01:31:41.739Z,84.17
2016-03-29T01:32:41.726Z,84.45
2016-03-29T01:33:42.511Z,84.26
2016-03-29T01:34:41.717Z,84.55
2016-03-29T01:35:41.703Z,84.07
2016-03-29T01:36:42.440Z,84.07
2016-03-29T01:37:41.693Z,84.17
2016-03-29T01:38:41.742Z,84.17
2016-03-29T01:39:41.683Z,84.07
2016-03-29T01:40:41.935Z,84.07
2016-03-29T01:41:41.672Z,84.26
2016-03-29T01:42:41.675Z,84.64
2016-03-29T01:43:41.647Z,84.45
2016-03-29T01:44:41.649Z,84.45
2016-03-29T01:45:41.636Z,84.64
2016-03-29T01:46:41.624Z,85.11
2016-03-29T01:47:41.626Z,84.74
2016-03-29T01:48:41.629Z,85.02
2016-03-29T01:49:41.631Z,84.83
2016-03-29T01:50:41.604Z,84.92
2016-03-29T01:51:41.590Z,85.02
2016-03-29T01:52:41.593Z,84.74
2016-03-29T01:53:41.580Z,85.3
2016-03-29T01:54:41.567Z,84.92
2016-03-29T01:55:41.554Z,84.92
2016-03-29T01:56:41.556Z,84.55
2016-03-29T01:57:41.544Z,84.64
2016-03-29T01:58:41.531Z,85.78
2016-03-29T01:59:41.534Z,84.64
2016-03-29T02:00:41.536Z,85.59
2016-03-29T02:01:41.523Z,85.78
2016-03-29T02:02:41.526Z,85.02
2016-03-29T02:03:41.528Z,84.92
2016-03-29T02:04:41.516Z,85.68
2016-03-29T02:05:41.487Z,85.4
2016-03-29T02:06:41.490Z,85.3
2016-03-29T02:07:41.477Z,84.92
2016-03-29T02:08:41.480Z,85.49
2016-03-29T02:09:41.467Z,85.3
2016-03-29T02:10:41.470Z,85.4
2016-03-29T02:11:41.456Z,85.21
2016-03-29T02:12:41.443Z,85.59
2016-03-29T02:13:41.446Z,85.21
2016-03-29T02:14:41.433Z,85.87
2016-03-29T02:15:41.436Z,85.59
2016-03-29T02:16:41.439Z,85.78
2016-03-29T02:17:41.427Z,85.68
2016-03-29T02:18:41.397Z,85.97
2016-03-29T02:19:41.399Z,85.87
2016-03-29T02:20:41.387Z,85.78
2016-03-29T02:21:41.390Z,85.68
2016-03-29T02:22:41.360Z,85.78
2016-03-29T02:23:41.379Z,85.59
2016-03-29T02:24:41.350Z,86.44
2016-03-29T02:25:41.354Z,86.25
2016-03-29T02:26:41.340Z,86.25
2016-03-29T02:27:41.343Z,86.25
2016-03-29T02:28:41.331Z,86.25
2016-03-29T02:29:41.333Z,86.16
2016-03-29T02:30:41.320Z,86.07
2016-03-29T02:31:41.306Z,86.07
2016-03-29T02:32:41.309Z,86.07
2016-03-29T02:33:41.297Z,85.87
2016-03-29T02:34:41.284Z,85.87
2016-03-29T02:35:41.286Z,86.16
2016-03-29T02:36:41.258Z,86.16
2016-03-29T02:37:41.261Z,86.16
2016-03-29T02:38:41.247Z,86.25
2016-03-29T02:39:41.500Z,86.25
2016-03-29T02:40:41.581Z,86.25
2016-03-29T02:41:41.241Z,86.16
2016-03-29T02:42:42.086Z,86.16
2016-03-29T02:43:41.214Z,86.25
2016-03-29T02:44:42.139Z,86.25
2016-03-29T02:45:41.220Z,85.97
2016-03-29T02:46:41.207Z,86.25
2016-03-29T02:47:41.193Z,86.25
2016-03-29T02:48:41.197Z,85.49
2016-03-29T02:49:55.371Z,85.97
2016-03-29T02:50:41.421Z,85.82
2016-03-29T02:51:41.611Z,85.82
2016-03-29T02:52:41.521Z,85.82
2016-03-29T02:53:41.944Z,85.82
2016-03-29T02:54:41.759Z,85.82
2016-03-29T02:55:41.137Z,85.82
2016-03-29T02:56:41.859Z,85.87
2016-03-29T02:57:41.752Z,85.97
2016-03-29T02:58:41.332Z,85.63
2016-03-29T02:59:41.148Z,85.49
2016-03-29T03:00:41.182Z,85.63
2016-03-29T03:01:41.107Z,85.44
2016-03-29T03:02:41.093Z,85.63
2016-03-29T03:03:41.081Z,85.44
2016-03-29T03:04:41.068Z,85.53
2016-03-29T03:05:41.055Z,85.44
2016-03-29T03:06:41.058Z,85.44
2016-03-29T03:07:41.045Z,85.53
2016-03-29T03:08:41.048Z,85.63
2016-03-29T03:09:41.050Z,85.72
2016-03-29T03:10:41.021Z,85.72
2016-03-29T03:11:41.008Z,85.82
2016-03-29T03:12:40.870Z,86.01
2016-03-29T03:13:41.013Z,85.72
2016-03-29T03:14:41.000Z,85.63
2016-03-29T03:15:41.003Z,85.25
2016-03-29T03:16:40.991Z,85.44
2016-03-29T03:17:40.993Z,85.35
2016-03-29T03:18:40.980Z,85.72
2016-03-29T03:19:40.983Z,85.49
2016-03-29T03:20:40.970Z,85.49
2016-03-29T03:21:40.957Z,85.2
2016-03-29T03:22:40.943Z,85.2
2016-03-29T03:23:40.947Z,85.68
2016-03-29T03:24:40.934Z,85.96
2016-03-29T03:25:40.937Z,85.2
2016-03-29T03:26:40.924Z,85.3
2016-03-29T03:27:40.910Z,84.72
2016-03-29T03:28:40.898Z,84.91
2016-03-29T03:29:40.900Z,84.82
2016-03-29T03:30:40.887Z,85.3
2016-03-29T03:31:40.890Z,85.01
2016-03-29T03:32:40.878Z,84.82
2016-03-29T03:33:40.880Z,84.63
2016-03-29T03:34:40.867Z,84.91
2016-03-29T03:35:40.870Z,84.44
2016-03-29T03:36:40.856Z,84.1
2016-03-29T03:37:40.845Z,84.29
2016-03-29T03:38:40.847Z,84.2
2016-03-29T03:39:40.834Z,84.01
2016-03-29T03:40:40.836Z,84.29
2016-03-29T03:41:40.808Z,83.82
2016-03-29T03:42:40.826Z,83.53
2016-03-29T03:43:40.828Z,83.72
2016-03-29T03:44:40.816Z,83.72
2016-03-29T03:45:40.802Z,83.44
2016-03-29T03:46:40.806Z,83.82
2016-03-29T03:47:40.793Z,83.62
2016-03-29T03:48:40.780Z,83.72
2016-03-29T03:49:40.783Z,83.15
2016-03-29T03:50:40.769Z,83.34
2016-03-29T03:51:40.772Z,83.15
2016-03-29T03:52:40.759Z,83.25
2016-03-29T03:53:40.747Z,83.25
2016-03-29T03:54:40.749Z,83.25
2016-03-29T03:55:40.751Z,83.15
2016-03-29T03:56:40.738Z,82.68
2016-03-29T03:57:40.726Z,82.62
2016-03-29T03:59:41.326Z,82.24
2016-03-29T04:00:40.718Z,82.34
2016-03-29T04:01:41.502Z,82.81
2016-03-29T04:03:41.273Z,82.43
2016-03-29T04:04:42.339Z,82.15
2016-03-29T04:05:40.731Z,82.34
2016-03-29T04:06:40.781Z,82.34
2016-03-29T04:07:40.517Z,82.34
2016-03-29T04:08:40.662Z,82.24
2016-03-29T04:09:41.242Z,82.24
2016-03-29T04:10:41.105Z,82.43
2016-03-29T04:11:40.686Z,82.34
2016-03-29T04:12:41.422Z,82.43
2016-03-29T04:13:40.847Z,82.53
2016-03-29T04:14:40.631Z,82.05
2016-03-29T04:15:40.977Z,81.96
2016-03-29T04:16:40.746Z,82.34
2016-03-29T04:17:40.623Z,82.53
2016-03-29T04:18:40.627Z,82.15
2016-03-29T04:19:40.597Z,82.24
2016-03-29T04:20:40.600Z,82.24
2016-03-29T04:21:40.603Z,82.91
2016-03-29T04:22:40.590Z,82.71
2016-03-29T04:23:40.593Z,82.91
2016-03-29T04:24:40.563Z,82.71
2016-03-29T04:25:40.566Z,82.71
2016-03-29T04:26:40.569Z,82.53
2016-03-29T04:27:40.557Z,82.53
2016-03-29T04:28:40.560Z,82.71
2016-03-29T04:29:40.546Z,82.53
2016-03-29T04:30:40.534Z,82.53
2016-03-29T04:31:40.537Z,82.71
2016-03-29T04:32:40.539Z,82.62
2016-03-29T04:33:40.510Z,82.62
2016-03-29T04:34:40.513Z,82.24
2016-03-29T04:35:40.515Z,82.24
2016-03-29T04:36:40.503Z,82.34
2016-03-29T04:37:40.506Z,82.71
2016-03-29T04:38:40.492Z,83.19
2016-03-29T04:39:40.495Z,83.19
2016-03-29T04:40:40.498Z,83.19
2016-03-29T04:41:40.485Z,83.29
2016-03-29T04:42:40.472Z,83.1
2016-03-29T04:43:40.475Z,83
2016-03-29T04:44:40.461Z,83.48
2016-03-29T04:45:40.464Z,83.1
2016-03-29T04:46:40.452Z,83.58
2016-03-29T04:47:46.736Z,83.48
2016-03-29T04:48:40.488Z,83.39
2016-03-29T04:49:40.491Z,83.48
2016-03-29T04:50:40.478Z,83.39
2016-03-29T04:51:40.480Z,83
2016-03-29T04:52:40.468Z,83.19
2016-03-29T04:53:40.471Z,83.29
2016-03-29T04:54:40.302Z,83.48
2016-03-29T04:55:40.460Z,83.86
2016-03-29T04:56:40.400Z,83.76
2016-03-29T04:57:40.388Z,83.19
2016-03-29T04:58:40.391Z,83.39
2016-03-29T04:59:40.377Z,83.76
2016-03-29T05:00:40.380Z,83.86
2016-03-29T05:01:40.367Z,83.76
2016-03-29T05:02:40.385Z,83.76
2016-03-29T05:03:40.357Z,83.67
2016-03-29T05:04:40.359Z,84.24
2016-03-29T05:05:40.345Z,84.05
2016-03-29T05:06:40.349Z,84.33
2016-03-29T05:07:40.351Z,84.24
2016-03-29T05:08:40.339Z,84.33
2016-03-29T05:09:40.326Z,84.33
2016-03-29T05:10:40.313Z,84.33
2016-03-29T05:11:40.315Z,84.43
2016-03-29T05:12:40.317Z,84.91
2016-03-29T05:13:40.306Z,85
2016-03-29T05:14:40.308Z,84.81
2016-03-29T05:15:40.294Z,84.62
2016-03-29T05:16:40.141Z,84.81
2016-03-29T05:17:54.472Z,85
2016-03-29T05:19:40.415Z,84.62
2016-03-29T05:20:41.262Z,85.66
2016-03-29T05:21:40.280Z,84.72
2016-03-29T05:22:41.736Z,85.47
2016-03-29T05:23:40.254Z,85.28
2016-03-29T05:24:40.257Z,85.47
2016-03-29T05:25:40.244Z,85.47
2016-03-29T05:26:40.449Z,85.57
2016-03-29T05:27:40.733Z,85.38
2016-03-29T05:30:41.446Z,86.14
2016-03-29T05:31:42.057Z,85.66
2016-03-29T05:32:40.201Z,86.05
2016-03-29T05:33:41.390Z,85.76
2016-03-29T05:34:40.190Z,85.86
2016-03-29T05:35:40.286Z,85.95
2016-03-29T05:36:40.180Z,85.95
2016-03-29T05:37:40.167Z,85.95
2016-03-29T05:38:40.294Z,86.43
2016-03-29T05:39:40.172Z,86.24
2016-03-29T05:40:40.159Z,86.33
2016-03-29T05:41:40.161Z,86.24
2016-03-29T05:42:40.148Z,86.33
2016-03-29T05:43:40.151Z,86.61
2016-03-29T05:44:40.122Z,86.33
2016-03-29T05:45:40.125Z,86.24
2016-03-29T05:46:40.128Z,86.14
2016-03-29T05:47:40.131Z,85.95
2016-03-29T05:48:40.118Z,86.33
2016-03-29T05:49:40.105Z,86.33
2016-03-29T05:50:40.107Z,86.24
2016-03-29T05:51:40.095Z,86.33
2016-03-29T05:52:40.097Z,86.33
2016-03-29T05:53:40.085Z,86.24
2016-03-29T05:54:40.088Z,86.14
2016-03-29T05:55:40.075Z,86.14
2016-03-29T05:56:40.108Z,86.14
2016-03-29T05:57:40.063Z,86.05
2016-03-29T05:58:40.066Z,86.33
2016-03-29T05:59:40.069Z,86.05
2016-03-29T06:00:40.040Z,86.24
2016-03-29T06:01:40.028Z,86.33
2016-03-29T06:02:40.031Z,86.33
2016-03-29T06:03:40.049Z,86.14
2016-03-29T06:04:40.021Z,86.14
2016-03-29T06:05:40.023Z,86.43
2016-03-29T06:06:40.026Z,86.43
2016-03-29T06:07:40.013Z,86.24
2016-03-29T06:08:40.000Z,86.43
2016-03-29T06:09:40.003Z,86.43
2016-03-29T06:10:39.993Z,86.43
2016-03-29T06:11:39.997Z,86.43
2016-03-29T06:12:39.983Z,86.14
2016-03-29T06:13:39.971Z,86.28
2016-03-29T06:14:39.989Z,86.38
2016-03-29T06:15:39.976Z,86.47
2016-03-29T06:16:39.963Z,86.09
2016-03-29T06:17:39.965Z,85.9
2016-03-29T06:18:39.953Z,85.99
2016-03-29T06:19:39.940Z,86.09
2016-03-29T06:20:39.927Z,86.09
2016-03-29T06:21:39.789Z,86.18
2016-03-29T06:22:39.932Z,85.9
2016-03-29T06:23:39.919Z,85.61
2016-03-29T06:24:39.922Z,85.66
2016-03-29T06:25:39.909Z,85.75
2016-03-29T06:26:40.006Z,85.85
2016-03-29T06:27:39.914Z,85.66
2016-03-29T06:28:39.901Z,85.47
2016-03-29T06:29:39.919Z,84.99
2016-03-29T06:30:39.892Z,85.56
2016-03-29T06:31:39.894Z,85.08
2016-03-29T06:32:39.897Z,84.89
2016-03-29T06:33:39.883Z,84.7
2016-03-29T06:34:39.886Z,84.52
2016-03-29T06:35:39.873Z,84.33
2016-03-29T06:36:39.860Z,84.33
2016-03-29T06:37:39.879Z,83.94
2016-03-29T06:38:54.803Z,83.56
2016-03-29T06:39:39.869Z,83.22
2016-03-29T06:40:39.902Z,83.8
2016-03-29T06:41:41.546Z,83.32
2016-03-29T06:42:39.830Z,82.65
2016-03-29T06:43:39.832Z,82.93
2016-03-29T06:44:39.819Z,82.56
2016-03-29T06:45:39.837Z,82.27
2016-03-29T06:46:40.528Z,81.79
2016-03-29T06:47:40.624Z,81.7
2016-03-29T06:48:40.674Z,81.13
2016-03-29T06:49:39.880Z,81.41
2016-03-29T06:50:40.163Z,81.03
2016-03-29T06:51:39.995Z,81.13
2016-03-29T06:52:39.810Z,81.41
2016-03-29T06:53:40.360Z,80.84
2016-03-29T06:54:40.197Z,80.65
2016-03-29T06:55:39.807Z,80.84
2016-03-29T06:56:39.794Z,81.03
2016-03-29T06:57:39.747Z,80.55
2016-03-29T06:58:39.702Z,80.36
2016-03-29T06:59:39.692Z,80.55
2016-03-29T07:00:39.673Z,79.6
2016-03-29T07:01:39.670Z,79.89
2016-03-29T07:02:39.666Z,79.41
2016-03-29T07:03:39.663Z,79.7
2016-03-29T07:04:39.661Z,79.51
2016-03-29T07:05:39.646Z,79.32
2016-03-29T07:06:39.630Z,78.46
2016-03-29T07:07:39.631Z,78.85
2016-03-29T07:08:39.617Z,78.56
2016-03-29T07:09:39.633Z,78.65
2016-03-29T07:10:39.620Z,78.85
2016-03-29T07:11:39.683Z,78.17
2016-03-29T07:12:39.607Z,78.17
2016-03-29T07:13:39.610Z,78.17
2016-03-29T07:14:39.611Z,77.98
2016-03-29T07:15:39.597Z,77.61
2016-03-29T07:16:39.600Z,77.42
2016-03-29T07:17:39.587Z,77.13
2016-03-29T07:18:39.590Z,77.03
2016-03-29T07:19:39.576Z,76.75
2016-03-29T07:20:39.579Z,76.84
2016-03-29T07:21:39.582Z,76.65
2016-03-29T07:22:39.553Z,76.94
2016-03-29T07:23:39.555Z,76.08
2016-03-29T07:24:39.543Z,76.37
2016-03-29T07:25:39.562Z,75.99
2016-03-29T07:26:39.580Z,76.08
2016-03-29T07:27:39.551Z,75.89
2016-03-29T07:28:39.538Z,76.18
2016-03-29T07:29:39.541Z,75.79
2016-03-29T07:30:39.528Z,75.79
2016-03-29T07:31:39.530Z,75.99
2016-03-29T07:32:39.533Z,76.08
2016-03-29T07:33:39.536Z,75.04
2016-03-29T07:34:39.522Z,74.79
2016-03-29T07:35:39.510Z,74.4
2016-03-29T07:36:39.513Z,74.21
2016-03-29T07:37:39.516Z,73.74
2016-03-29T07:38:39.534Z,73.55
2016-03-29T07:39:39.521Z,73.55
2016-03-29T07:40:39.508Z,73.74
2016-03-29T07:41:39.511Z,73.45
2016-03-29T07:42:39.498Z,73.26
2016-03-29T07:43:39.501Z,72.34
2016-03-29T07:44:39.471Z,72.16
2016-03-29T07:45:39.490Z,72.06
2016-03-29T07:46:39.477Z,71.77
2016-03-29T07:47:39.465Z,71.39
2016-03-29T07:48:39.467Z,71.39
2016-03-29T07:49:39.486Z,71.2
2016-03-29T07:50:39.473Z,69.39
2016-03-29T07:51:39.476Z,69.01
2016-03-29T07:52:39.478Z,69.29
2016-03-29T07:53:39.482Z,68.82
2016-03-29T07:54:39.468Z,68.91
2016-03-29T07:56:53.646Z,67.68
2016-03-29T08:00:39.451Z,67
2016-03-29T08:01:40.265Z,67.2
2016-03-29T08:02:40.175Z,67.77
2016-03-29T08:03:39.428Z,67.29
2016-03-29T08:04:39.445Z,67.2
2016-03-29T08:05:40.026Z,68.18
2016-03-29T08:06:40.295Z,67.99
2016-03-29T08:07:54.425Z,67.71
2016-03-29T08:08:40.628Z,67.8
2016-03-29T08:09:40.225Z,68.18
2016-03-29T08:10:41.150Z,67.9
2016-03-29T08:11:39.886Z,66.85
2016-03-29T08:12:39.420Z,66.18
2016-03-29T08:13:39.422Z,66.28
2016-03-29T08:14:39.410Z,66.94
2016-03-29T08:15:39.428Z,67.23
2016-03-29T08:16:39.431Z,66.28
2016-03-29T08:17:39.419Z,66.47
2016-03-29T08:18:39.421Z,67.23
2016-03-29T08:19:39.408Z,66.94
2016-03-29T08:20:39.410Z,67.23
2016-03-29T08:21:39.413Z,66.94
2016-03-29T08:22:39.416Z,66.85
2016-03-29T08:23:39.403Z,66.94
2016-03-29T08:24:39.391Z,66.47
2016-03-29T08:25:39.393Z,66.47
2016-03-29T08:26:39.411Z,66.09
2016-03-29T08:27:39.398Z,66.56
2016-03-29T08:28:39.385Z,65.89
2016-03-29T08:29:39.404Z,65.89
2016-03-29T08:30:39.391Z,66.38
2016-03-29T08:31:39.393Z,66.28
2016-03-29T08:32:39.396Z,66.28
2016-03-29T08:33:39.383Z,66.09
2016-03-29T08:34:39.370Z,65.61
2016-03-29T08:35:39.373Z,65.52
2016-03-29T08:36:39.376Z,65.52
2016-03-29T08:37:39.363Z,65.13
2016-03-29T08:38:39.365Z,65.61
2016-03-29T08:39:39.384Z,65.61
2016-03-29T08:40:39.355Z,66.47
2016-03-29T08:41:39.373Z,66.09
2016-03-29T08:42:39.376Z,66.53
2016-03-29T08:43:39.363Z,66.53
2016-03-29T08:44:39.366Z,66.82
2016-03-29T08:45:39.368Z,67.1
2016-03-29T08:46:39.372Z,67.2
2016-03-29T08:47:39.389Z,67.39
2016-03-29T08:48:39.377Z,67.39
2016-03-29T08:49:39.348Z,67.48
2016-03-29T08:50:39.350Z,67.86
2016-03-29T08:51:39.338Z,67.29
2016-03-29T08:52:39.340Z,67.68
2016-03-29T08:53:39.344Z,67.58
2016-03-29T08:54:39.346Z,68.44
2016-03-29T08:55:39.333Z,68.24
2016-03-29T08:56:39.321Z,68.47
2016-03-29T08:57:39.338Z,68.28
2016-03-29T08:58:39.341Z,68.18
2016-03-29T08:59:39.329Z,67.8
2016-03-29T09:00:39.346Z,67.93
2016-03-29T09:01:39.334Z,66.69
2016-03-29T09:02:39.320Z,66.5
2016-03-29T09:03:39.323Z,65.55
2016-03-29T09:04:39.326Z,64.91
2016-03-29T09:05:39.313Z,64.91
2016-03-29T09:06:39.317Z,64.85
2016-03-29T09:07:39.319Z,63.99
2016-03-29T09:08:39.322Z,64.09
2016-03-29T09:09:39.309Z,64.22
2016-03-29T09:10:39.312Z,63.54
2016-03-29T09:11:39.315Z,63.1
2016-03-29T09:12:39.317Z,62.71
2016-03-29T09:13:39.320Z,61.69
2016-03-29T09:14:39.869Z,61.12
2016-03-29T09:16:39.562Z,60
2016-03-29T09:17:40.612Z,59.52
2016-03-29T09:18:40.584Z,59.91
2016-03-29T09:19:41.398Z,58.86
2016-03-29T09:20:39.526Z,58.66
2016-03-29T09:21:39.403Z,58.66
2016-03-29T09:22:39.329Z,57.42
2016-03-29T09:23:39.706Z,57.7
2016-03-29T09:24:39.381Z,58.09
2016-03-29T09:26:39.886Z,57.48
2016-03-29T09:27:39.873Z,57.48
2016-03-29T09:28:40.453Z,57.68
2016-03-29T09:29:40.191Z,57.58
2016-03-29T09:30:39.333Z,57.1
2016-03-29T09:31:39.993Z,56.24
2016-03-29T09:32:39.324Z,56.24
2016-03-29T09:33:39.327Z,56.15
2016-03-29T09:34:39.345Z,56.12
2016-03-29T09:35:39.333Z,56.12
2016-03-29T09:36:39.350Z,55.57
2016-03-29T09:37:39.338Z,55.45
2016-03-29T09:38:39.355Z,54.78
2016-03-29T09:39:39.343Z,54.97
2016-03-29T09:40:39.346Z,55.07
2016-03-29T09:41:39.332Z,55.26
2016-03-29T09:42:39.335Z,54.11
2016-03-29T09:43:39.353Z,54.11
2016-03-29T09:44:39.340Z,54.47
2016-03-29T09:45:39.348Z,55.04
2016-03-29T09:46:39.335Z,55.04
2016-03-29T09:47:39.354Z,54.94
2016-03-29T09:48:39.340Z,55.42
2016-03-29T09:49:39.343Z,55.42
2016-03-29T09:50:39.345Z,55.42
2016-03-29T09:51:39.348Z,55.2
2016-03-29T09:52:39.351Z,54.44
2016-03-29T09:53:39.338Z,54.34
2016-03-29T09:54:39.357Z,54.25
2016-03-29T09:55:39.344Z,53.96
2016-03-29T09:56:39.347Z,53.86
2016-03-29T09:57:39.350Z,53.67
2016-03-29T09:58:39.336Z,53.67
2016-03-29T09:59:39.339Z,53.8
2016-03-29T10:00:39.357Z,53.13
2016-03-29T10:01:39.344Z,51.5
2016-03-29T10:02:39.331Z,51.21
2016-03-29T10:03:39.349Z,50.84
2016-03-29T10:04:39.337Z,50.55
2016-03-29T10:05:39.339Z,50.74
2016-03-29T10:06:39.327Z,50.84
2016-03-29T10:07:39.345Z,50.55
2016-03-29T10:08:39.348Z,50.55
2016-03-29T10:09:39.351Z,50.84
2016-03-29T10:10:39.337Z,50.84
2016-03-29T10:11:39.340Z,50.84
2016-03-29T10:12:39.342Z,50.84
2016-03-29T10:13:39.346Z,51
2016-03-29T10:14:39.348Z,51.38
2016-03-29T10:15:39.335Z,51.19
2016-03-29T10:16:39.323Z,51.29
2016-03-29T10:17:39.340Z,51.45
2016-03-29T10:18:39.328Z,51.93
2016-03-29T10:19:39.331Z,51.93
2016-03-29T10:20:39.317Z,52.98
2016-03-29T10:21:39.336Z,51.93
2016-03-29T10:22:39.322Z,52.79
2016-03-29T10:23:39.341Z,52.88
2016-03-29T10:24:39.344Z,52.03
2016-03-29T10:25:39.347Z,51.83
2016-03-29T10:26:39.334Z,51.93
2016-03-29T10:27:39.336Z,51.95
2016-03-29T10:28:39.323Z,51.86
2016-03-29T10:29:39.325Z,51.5
2016-03-29T10:30:39.313Z,50.74
2016-03-29T10:31:39.330Z,50.35
2016-03-29T10:32:39.333Z,50.07
2016-03-29T10:34:40.120Z,49.43
2016-03-29T10:35:39.326Z,49.04
2016-03-29T10:36:40.469Z,48.95
2016-03-29T10:37:39.315Z,48.38
2016-03-29T10:38:40.178Z,47.99
2016-03-29T10:39:39.321Z,47.82
2016-03-29T10:40:39.324Z,47.73
2016-03-29T10:41:39.327Z,47.34
2016-03-29T10:42:39.329Z,46.58
2016-03-29T10:43:39.535Z,46.3
2016-03-29T10:44:39.522Z,46.31
2016-03-29T10:45:39.337Z,45.45
2016-03-29T10:46:39.325Z,44.21
2016-03-29T10:47:39.342Z,44.29
2016-03-29T10:48:39.345Z,44.57
2016-03-29T10:49:39.348Z,44.38
2016-03-29T10:50:39.335Z,44.48
2016-03-29T10:51:39.338Z,44.38
2016-03-29T10:52:39.341Z,44.57
2016-03-29T10:53:39.344Z,44.59
2016-03-29T10:54:39.189Z,44.4
2016-03-29T10:55:39.334Z,44.5
2016-03-29T10:56:39.352Z,44.59
2016-03-29T10:57:39.355Z,44.4
2016-03-29T10:58:39.341Z,44.76
2016-03-29T10:59:39.345Z,44.86
2016-03-29T11:00:39.347Z,45.34
2016-03-29T11:01:39.350Z,45.6
2016-03-29T11:02:39.352Z,45.31
2016-03-29T11:03:39.339Z,45.79
2016-03-29T11:04:38.624Z,45.51
2016-03-29T11:05:39.344Z,45.03
2016-03-29T11:06:39.347Z,45.31
2016-03-29T11:07:39.334Z,45.41
2016-03-29T11:08:39.352Z,45.7
2016-03-29T11:09:39.371Z,45.98
2016-03-29T11:10:39.358Z,45.79
2016-03-29T11:11:39.360Z,45.96
2016-03-29T11:12:39.363Z,46.25
2016-03-29T11:13:39.366Z,46.46
2016-03-29T11:14:39.353Z,46.56
2016-03-29T11:15:39.356Z,46.37
2016-03-29T11:16:39.358Z,46.27
2016-03-29T11:17:39.361Z,46.44
2016-03-29T11:18:39.379Z,46.63
2016-03-29T11:19:39.367Z,46.53
2016-03-29T11:20:39.354Z,47.27
2016-03-29T11:21:39.356Z,46.99
2016-03-29T11:22:39.359Z,46.99
2016-03-29T11:23:39.362Z,46.89
2016-03-29T11:24:39.364Z,46.89
2016-03-29T11:25:39.351Z,47.11
2016-03-29T11:26:39.354Z,47.39
2016-03-29T11:27:39.342Z,47.11
2016-03-29T11:28:39.345Z,47.49
2016-03-29T11:29:39.347Z,46.82
2016-03-29T11:30:39.365Z,46.44
2016-03-29T11:31:39.352Z,46.92
2016-03-29T11:32:39.355Z,46.25
2016-03-29T11:33:39.342Z,45.67
2016-03-29T11:34:39.360Z,44.72
2016-03-29T11:35:39.347Z,44.24
2016-03-29T11:36:39.193Z,43.48
2016-03-29T11:37:39.353Z,43.57
2016-03-29T11:38:39.355Z,43.66
2016-03-29T11:39:39.358Z,43.86
2016-03-29T11:40:39.361Z,44.62
2016-03-29T11:41:39.348Z,45.27
2016-03-29T11:42:39.351Z,44.98
2016-03-29T11:43:39.337Z,45.46
2016-03-29T11:44:39.340Z,45.37
2016-03-29T11:45:39.342Z,44.98
2016-03-29T11:46:39.345Z,44.89
2016-03-29T11:47:39.364Z,44.79
2016-03-29T11:48:39.334Z,44.7
2016-03-29T11:49:39.337Z,44.98
2016-03-29T11:50:39.340Z,45.08
2016-03-29T11:51:39.343Z,45.27
2016-03-29T11:52:53.536Z,45.27
2016-03-29T11:54:39.367Z,45.08
2016-03-29T11:55:39.339Z,45.25
2016-03-29T11:56:39.342Z,46.01
2016-03-29T11:57:40.094Z,45.72
2016-03-29T11:58:40.706Z,46.2
2016-03-29T11:59:39.333Z,46.2
2016-03-29T12:00:40.164Z,46.48
2016-03-29T12:01:39.355Z,46.01
2016-03-29T12:02:39.498Z,46.3
2016-03-29T12:03:39.375Z,46.48
2016-03-29T12:04:39.347Z,46.68
2016-03-29T12:05:42.380Z,46.39
2016-03-29T12:06:39.336Z,46.2
2016-03-29T12:07:39.337Z,46.32
2016-03-29T12:08:39.386Z,46.32
2016-03-29T12:09:39.342Z,46.32
2016-03-29T12:10:39.376Z,45.96
2016-03-29T12:11:39.332Z,45.96
2016-03-29T12:12:39.318Z,45.77
2016-03-29T12:13:39.337Z,45.03
2016-03-29T12:14:39.323Z,44.55
2016-03-29T12:15:39.326Z,44.65
2016-03-29T12:16:39.315Z,44.55
2016-03-29T12:17:39.332Z,44.55
2016-03-29T12:18:39.334Z,44.65
2016-03-29T12:19:39.337Z,44.45
2016-03-29T12:20:39.324Z,44.55
2016-03-29T12:21:39.342Z,44.55
2016-03-29T12:22:39.345Z,44.57
2016-03-29T12:23:39.333Z,44.57
2016-03-29T12:24:39.336Z,44.57
2016-03-29T12:25:39.339Z,44.29
2016-03-29T12:26:39.341Z,44
2016-03-29T12:27:39.344Z,44.19
2016-03-29T12:28:39.331Z,44.38
2016-03-29T12:29:39.333Z,44
2016-03-29T12:30:39.320Z,43.71
2016-03-29T12:31:39.339Z,43.98
2016-03-29T12:32:39.325Z,43.69
2016-03-29T12:33:39.344Z,43.79
2016-03-29T12:34:39.331Z,44.07
2016-03-29T12:35:39.349Z,44.36
2016-03-29T12:36:39.336Z,44.65
2016-03-29T12:37:39.338Z,44.91
2016-03-29T12:38:39.341Z,45.12
2016-03-29T12:39:39.329Z,45.39
2016-03-29T12:40:39.331Z,45.29
2016-03-29T12:41:39.349Z,45.39
2016-03-29T12:42:39.337Z,45.29
2016-03-29T12:43:39.340Z,45.29
2016-03-29T12:44:39.343Z,44.72
2016-03-29T12:45:39.330Z,44.81
2016-03-29T12:46:39.348Z,44.91
2016-03-29T12:47:39.351Z,45.01
2016-03-29T12:48:39.354Z,45.01
2016-03-29T12:49:39.325Z,45.1
2016-03-29T12:50:39.343Z,44.91
2016-03-29T12:51:39.331Z,44.91
2016-03-29T12:52:39.317Z,45.1
2016-03-29T12:53:39.336Z,44.81
2016-03-29T12:54:39.322Z,44.81
2016-03-29T12:55:39.325Z,45.01
2016-03-29T12:56:39.328Z,44.91
2016-03-29T12:57:39.408Z,44.53
2016-03-29T12:58:39.333Z,44.34
2016-03-29T12:59:39.336Z,44.15
2016-03-29T13:00:39.338Z,44.05
2016-03-29T13:01:39.341Z,43.66
2016-03-29T13:02:39.343Z,43.57
2016-03-29T13:03:39.330Z,43.57
2016-03-29T13:04:39.333Z,43.48
2016-03-29T13:05:39.164Z,43.57
2016-03-29T13:06:39.338Z,43.48
2016-03-29T13:07:39.326Z,43.57
2016-03-29T13:08:39.329Z,43.93
2016-03-29T13:09:39.316Z,44.41
2016-03-29T13:10:39.335Z,44.89
2016-03-29T13:12:39.762Z,45.65